Terminal Aerodrome Forecast
Issued by NWS

Home | Current Version | Previous Version | Text Only | Print | Product List | Glossary On
Versions: 1 2 3 4 5 6 7 8 9 10 11 12
000
FTUS41 KPBZ 231723
TAFDUJ
TAF
KDUJ 231723Z 2318/2418 13009G17KT P6SM FEW250
     FM240000 13009KT P6SM SCT250
     FM241200 12008KT P6SM -SHRA OVC070
     FM241600 13010KT P6SM -SHRA OVC030=

USA.gov is the U.S. government's official web portal to all federal, state and local government web resources and services.